Time;durP1;ratioP1;P1;durP2;ratioP2;P2;SDS_P1;SDS_P2;PMS_P1;PMS_P2;Temp;Humidity;BMP_temperature;BMP_pressure;BME280_temperature;BME280_humidity;BME280_pressure;Samples;Min_cycle;Max_cycle;Signal;HPM_P1;HPM_P2
2021/12/08 00:01:20;;;;;;;82.72;32.13;;;;;;;-0.84;100.00;100121.59;5108991;28;20023;-79
2021/12/08 00:03:45;;;;;;;73.68;29.80;;;;;;;-0.69;100.00;100132.81;5108456;28;20043;-79
2021/12/08 00:06:11;;;;;;;80.03;33.47;;;;;;;-0.68;100.00;100124.00;5108724;28;20042;-80
2021/12/08 00:08:37;;;;;;;;;;;;;;;-0.67;100.00;100109.97;5112342;28;20497;-79
2021/12/08 00:13:48;;;;;;;79.07;31.75;;;;;;;-0.60;100.00;100124.31;5109043;28;20039;-79
2021/12/08 00:16:13;;;;;;;83.03;35.43;;;;;;;-0.63;100.00;100103.56;5109420;28;20027;-79
2021/12/08 00:18:45;;;;;;;81.90;33.70;;;;;;;-0.58;100.00;100090.13;5108203;28;20031;-79
2021/12/08 00:21:12;;;;;;;82.05;32.17;;;;;;;-0.57;100.00;100091.81;5108224;28;20032;-79
2021/12/08 00:23:37;;;;;;;;;;;;;;;-0.53;100.00;100073.13;5108529;28;20031;-78
2021/12/08 00:26:04;;;;;;;82.70;32.72;;;;;;;-0.55;100.00;100074.19;5109152;28;19916;-80
2021/12/08 00:28:30;;;;;;;79.55;30.75;;;;;;;-0.48;100.00;100081.50;5108202;28;20037;-79
2021/12/08 00:31:00;;;;;;;81.85;31.83;;;;;;;-0.50;100.00;100072.91;5108325;28;20388;-79
2021/12/08 00:33:28;;;;;;;80.93;35.15;;;;;;;-0.59;100.00;100073.53;5108340;28;20118;-79
2021/12/08 00:35:54;;;;;;;81.00;31.23;;;;;;;-0.57;100.00;100063.78;5109129;28;20023;-80
2021/12/08 00:38:20;;;;;;;80.55;29.02;;;;;;;-0.58;100.00;100064.75;5109235;28;20369;-80
2021/12/08 00:40:48;;;;;;;75.10;31.40;;;;;;;-0.60;100.00;100055.31;5090936;28;20040;-79
2021/12/08 00:43:14;;;;;;;82.95;31.15;;;;;;;-0.49;100.00;100069.34;5109045;28;20031;-79
2021/12/08 00:45:40;;;;;;;79.65;29.80;;;;;;;-0.57;100.00;100063.78;5108761;28;20353;-79
2021/12/08 00:48:06;;;;;;;77.85;31.45;;;;;;;-0.59;100.00;100056.97;5107860;28;20036;-80
2021/12/08 00:50:34;;;;;;;72.82;29.05;;;;;;;-0.49;100.00;100052.78;5107855;28;20031;-79
2021/12/08 00:53:00;;;;;;;72.13;29.58;;;;;;;-0.62;100.00;100030.97;5108807;28;20088;-80
2021/12/08 00:55:26;;;;;;;76.70;30.92;;;;;;;-0.61;100.00;100016.91;5107670;28;20036;-79
2021/12/08 00:57:51;;;;;;;74.20;27.95;;;;;;;-0.52;100.00;100027.59;5091054;28;20506;-79
2021/12/08 01:00:20;;;;;;;79.70;30.27;;;;;;;-0.49;100.00;100008.19;5107867;28;20023;-80
2021/12/08 01:02:46;;;;;;;71.85;31.33;;;;;;;-0.51;100.00;100003.06;5107532;28;20325;-80
2021/12/08 01:05:16;;;;;;;70.78;32.35;;;;;;;-0.56;100.00;99984.19;5107583;28;20066;-79
2021/12/08 01:07:42;;;;;;;72.32;29.70;;;;;;;-0.50;100.00;99980.28;5090911;28;20043;-79
2021/12/08 01:10:13;;;;;;;67.30;28.35;;;;;;;-0.64;100.00;99965.53;5108467;28;20172;-79
2021/12/08 01:12:39;;;;;;;65.40;28.52;;;;;;;-0.46;100.00;99989.63;5107683;28;20031;-79
2021/12/08 01:15:05;;;;;;;74.93;30.83;;;;;;;-0.50;100.00;99969.78;5107514;28;20054;-79
2021/12/08 01:17:32;;;;;;;70.70;28.35;;;;;;;-0.48;100.00;99992.34;5108100;28;20066;-79
2021/12/08 01:19:57;;;;;;;83.90;28.75;;;;;;;-0.58;100.00;99972.16;5107733;28;20238;-79
2021/12/08 01:22:23;;;;;;;76.05;27.45;;;;;;;-0.49;100.00;99995.09;5107633;28;20043;-80
2021/12/08 01:24:48;;;;;;;65.45;28.45;;;;;;;-0.47;100.00;100009.75;5107344;28;20031;-79
2021/12/08 01:27:13;;;;;;;76.65;28.90;;;;;;;-0.45;100.00;100002.59;5107583;28;20054;-79
2021/12/08 01:29:39;;;;;;;71.10;28.63;;;;;;;-0.49;100.00;99988.06;5108464;28;20046;-79
2021/12/08 01:32:07;;;;;;;75.03;28.10;;;;;;;-0.47;100.00;100004.53;5109832;28;20036;-79
2021/12/08 01:34:33;;;;;;;75.50;29.52;;;;;;;-0.44;100.00;100014.78;5111211;28;20044;-79
2021/12/08 01:36:58;;;;;;;81.00;30.60;;;;;;;-0.44;100.00;100004.28;5094413;28;20176;-79
2021/12/08 01:39:24;;;;;;;68.22;28.05;;;;;;;-0.39;100.00;100006.59;5111116;28;20035;-79
2021/12/08 01:41:52;;;;;;;79.93;32.13;;;;;;;-0.48;100.00;99989.72;5112169;28;20364;-79
2021/12/08 01:47:02;;;;;;;76.75;27.20;;;;;;;-0.40;100.00;99994.41;5112220;28;20032;-79
2021/12/08 01:49:27;;;;;;;76.05;27.27;;;;;;;-0.41;100.00;99991.91;5111524;28;20481;-79
2021/12/08 01:51:53;;;;;;;73.18;28.58;;;;;;;-0.45;100.00;99980.78;5111403;28;20039;-79
2021/12/08 01:54:18;;;;;;;83.07;29.48;;;;;;;-0.38;100.00;99987.25;5111557;28;20084;-80
2021/12/08 01:56:44;;;;;;;75.03;28.30;;;;;;;-0.41;100.00;99970.94;5111069;28;20032;-79
2021/12/08 01:59:10;;;;;;;68.53;27.55;;;;;;;-0.50;100.00;99964.56;5094032;28;20082;-79
2021/12/08 02:01:38;;;;;;;71.20;26.40;;;;;;;-0.41;100.00;99968.31;5111038;28;20104;-79
2021/12/08 02:04:06;;;;;;;72.90;25.95;;;;;;;-0.37;100.00;99975.00;5110650;28;20067;-79
2021/12/08 02:06:35;;;;;;;74.07;28.95;;;;;;;-0.39;100.00;99977.72;5094026;28;20425;-79
2021/12/08 02:09:05;;;;;;;77.10;33.75;;;;;;;-0.38;100.00;99965.44;5110347;28;20031;-79
2021/12/08 02:11:30;;;;;;;78.22;29.77;;;;;;;-0.34;100.00;99990.50;5111644;28;20039;-79
2021/12/08 02:14:00;;;;;;;71.00;31.33;;;;;;;-0.33;100.00;99984.31;5093595;28;20112;-79
2021/12/08 02:16:27;;;;;;;74.95;29.20;;;;;;;-0.32;100.00;99978.13;5110757;28;20110;-79
2021/12/08 02:18:53;;;;;;;67.32;25.13;;;;;;;-0.27;100.00;99979.44;5110460;28;20608;-78
2021/12/08 02:21:27;;;;;;;64.38;27.95;;;;;;;-0.31;100.00;99956.19;5110611;28;20043;-79
2021/12/08 02:23:56;;;;;;;66.22;26.20;;;;;;;-0.49;100.00;99914.63;5110263;28;20425;-79
2021/12/08 02:26:22;;;;;;;79.95;29.92;;;;;;;-0.35;100.00;99938.97;5111522;28;20027;-79
2021/12/08 02:28:48;;;;;;;;;;;;;;;-0.31;100.00;99943.06;5110899;28;20036;-79
2021/12/08 02:31:17;;;;;;;62.67;25.98;;;;;;;-0.30;100.00;99936.88;5110675;28;19912;-80
2021/12/08 02:49:53;;;;;;;68.82;26.58;;;;;;;-0.13;100.00;99907.59;5109900;28;20040;-80
2021/12/08 02:52:18;;;;;;;62.33;26.15;;;;;;;-0.12;100.00;99897.94;5109899;28;20114;-79
2021/12/08 02:54:49;;;;;;;57.00;24.75;;;;;;;-0.13;100.00;99885.78;5092538;28;20085;-79
2021/12/08 02:57:18;;;;;;;67.47;25.45;;;;;;;-0.22;100.00;99856.66;5109817;28;20039;-80
2021/12/08 02:59:45;;;;;;;64.75;25.17;;;;;;;-0.13;100.00;99870.03;5109807;28;20092;-80
2021/12/08 03:02:11;;;;;;;63.00;27.50;;;;;;;-0.13;100.00;99852.50;5110604;28;20457;-79
2021/12/08 03:04:37;;;;;;;66.35;27.67;;;;;;;-0.08;100.00;99863.47;5110607;28;20040;-79
2021/12/08 03:07:04;;;;;;;66.13;26.52;;;;;;;-0.09;100.00;99846.09;5109771;28;20426;-79
2021/12/08 03:09:30;;;;;;;66.25;26.80;;;;;;;-0.12;100.00;99833.16;5092217;28;20043;-79
2021/12/08 03:11:58;;;;;;;67.43;27.05;;;;;;;0.03;100.00;99846.09;5109591;28;20441;-79
2021/12/08 03:14:25;;;;;;;61.55;25.27;;;;;;;-0.03;100.00;99840.34;5092330;28;20103;-79
2021/12/08 03:16:56;;;;;;;60.38;24.85;;;;;;;0.01;100.00;99835.72;5110270;28;20019;-79
2021/12/08 03:19:24;;;;;;;58.75;25.73;;;;;;;0.01;100.00;99829.63;5110226;28;20035;-79
2021/12/08 03:21:51;;;;;;;61.70;23.60;;;;;;;0.02;100.00;99826.03;5109733;28;20364;-79
2021/12/08 03:26:49;;;;;;;67.22;25.63;;;;;;;-0.01;100.00;99798.25;5110236;28;19926;-79
2021/12/08 03:29:54;;;;;;;63.78;30.13;;;;;;;-0.12;100.00;99774.63;5092414;28;20030;-79
2021/12/08 03:32:13;;;;;;;57.13;23.55;;;;;;;-0.05;100.00;99775.81;5107082;28;20055;-80
2021/12/08 03:34:48;;;;;;;59.92;25.88;;;;;;;0.02;100.00;99782.25;5109879;28;20036;-79
2021/12/08 03:37:14;;;;;;;59.58;21.98;;;;;;;-0.02;100.00;99773.81;5108464;28;20039;-80
2021/12/08 03:39:41;;;;;;;62.05;26.33;;;;;;;-0.07;100.00;99744.47;5108296;28;20027;-79
2021/12/08 03:42:07;;;;;;;62.75;24.23;;;;;;;0.01;100.00;99764.84;5109128;28;20042;-80
2021/12/08 04:03:22;;;;;;;55.17;22.67;;;;;;;0.02;100.00;99750.78;5108752;28;20046;-80
2021/12/08 04:05:56;;;;;;;56.83;26.23;;;;;;;0.00;100.00;99744.84;5108251;28;20585;-79
2021/12/08 04:08:39;;;;;;;60.83;26.52;;;;;;;0.03;100.00;99749.84;5108269;28;20128;-79
2021/12/08 04:11:06;;;;;;;61.30;24.85;;;;;;;0.04;100.00;99745.41;5108783;28;20130;-80
2021/12/08 04:13:37;;;;;;;57.15;22.17;;;;;;;0.06;100.00;99759.25;5108370;28;20578;-79
2021/12/08 04:16:04;;;;;;;53.30;23.77;;;;;;;0.11;100.00;99751.84;5108485;28;20035;-80
2021/12/08 04:18:29;;;;;;;54.33;23.92;;;;;;;0.07;100.00;99746.03;5108552;28;20024;-79
2021/12/08 04:20:58;;;;;;;63.97;25.77;;;;;;;0.09;100.00;99722.25;5108472;28;20046;-79
2021/12/08 04:23:27;;;;;;;57.78;23.52;;;;;;;0.14;100.00;99739.34;5108201;28;20399;-79
2021/12/08 04:25:57;;;;;;;52.00;21.60;;;;;;;0.18;100.00;99726.78;5108066;28;20131;-79
2021/12/08 04:28:29;;;;;;;58.05;22.88;;;;;;;0.16;100.00;99718.19;5109312;28;20027;-79
2021/12/08 04:31:17;;;;;;;51.25;22.25;;;;;;;0.12;100.00;99712.38;5109188;28;20023;-78
2021/12/08 04:33:45;;;;;;;49.92;23.45;;;;;;;0.16;100.00;99728.69;5107768;28;20478;-79
2021/12/08 04:36:14;;;;;;;52.45;23.30;;;;;;;0.19;100.00;99707.47;5091349;28;20032;-79
2021/12/08 04:38:43;;;;;;;48.70;21.60;;;;;;;0.17;100.00;99683.13;5108066;28;20080;-79
2021/12/08 04:41:14;;;;;;;44.20;21.30;;;;;;;0.15;100.00;99696.38;5108106;28;20373;-79
2021/12/08 04:43:55;;;;;;;51.35;20.60;;;;;;;0.26;100.00;99703.41;5107967;28;20031;-80
2021/12/08 04:49:35;;;;;;;50.30;21.10;;;;;;;0.23;100.00;99702.81;5108005;28;20039;-79
2021/12/08 05:01:13;;;;;;;46.83;19.60;;;;;;;0.38;100.00;99689.28;5107849;28;20515;-79
2021/12/08 05:06:25;;;;;;;47.35;20.67;;;;;;;0.26;100.00;99669.28;5109734;28;20031;-79
2021/12/08 05:08:54;;;;;;;43.22;19.40;;;;;;;0.30;100.00;99664.59;5112701;28;20385;-80
2021/12/08 05:11:31;;;;;;;55.78;22.67;;;;;;;0.21;100.00;99653.03;5113160;28;20019;-79
2021/12/08 05:14:05;;;;;;;53.38;21.48;;;;;;;0.18;100.00;99656.75;5112727;28;20109;-80
2021/12/08 05:16:33;;;;;;;50.20;21.58;;;;;;;0.10;100.00;99638.16;5112823;28;20027;-80
2021/12/08 05:19:06;;;;;;;51.85;22.17;;;;;;;0.16;100.00;99655.19;5112463;28;20438;-80
2021/12/08 05:21:40;;;;;;;49.03;22.92;;;;;;;0.17;100.00;99660.34;5111915;28;20032;-80
2021/12/08 05:24:14;;;;;;;52.85;22.00;;;;;;;0.16;100.00;99660.44;5111497;28;20219;-80
2021/12/08 05:26:47;;;;;;;49.08;21.38;;;;;;;0.11;100.00;99658.19;5094355;28;20039;-80
2021/12/08 05:29:42;;;;;;;49.75;21.23;;;;;;;0.13;100.00;99672.03;5111480;28;20088;-79
2021/12/08 05:32:09;;;;;;;47.38;20.23;;;;;;;0.10;100.00;99661.78;5110462;28;20135;-79
2021/12/08 05:34:36;;;;;;;53.60;21.60;;;;;;;0.26;100.00;99677.16;5111116;28;20028;-80
2021/12/08 05:37:04;;;;;;;47.90;18.73;;;;;;;0.21;99.85;99666.16;5111676;28;20836;-79
2021/12/08 05:39:30;;;;;;;44.22;19.88;;;;;;;0.19;99.80;99654.97;5111221;28;20467;-79
2021/12/08 05:42:00;;;;;;;52.65;22.70;;;;;;;0.16;99.60;99655.19;5112840;28;20027;-80
2021/12/08 05:44:26;;;;;;;47.47;19.98;;;;;;;0.13;99.72;99651.03;5111413;28;20039;-80
2021/12/08 05:46:55;;;;;;;42.00;17.55;;;;;;;0.13;99.71;99639.69;5111435;28;20050;-80
2021/12/08 05:49:23;;;;;;;44.50;19.05;;;;;;;0.12;99.71;99643.31;5111558;28;20023;-80
2021/12/08 05:51:52;;;;;;;49.08;19.98;;;;;;;0.21;99.57;99658.28;5112014;28;20031;-80
2021/12/08 05:54:25;;;;;;;46.33;19.50;;;;;;;0.15;99.61;99649.13;5094078;28;20798;-79
2021/12/08 05:56:57;;;;;;;49.30;21.40;;;;;;;0.12;99.40;99641.50;5111280;28;20031;-80
2021/12/08 05:59:24;;;;;;;52.42;22.38;;;;;;;0.20;99.59;99651.38;5093845;28;20043;-80
2021/12/08 06:02:00;;;;;;;49.38;21.42;;;;;;;0.19;99.46;99647.09;5111171;28;20020;-79
2021/12/08 06:04:28;;;;;;;47.15;19.42;;;;;;;0.12;99.14;99625.75;5110654;28;20041;-79
2021/12/08 06:06:54;;;;;;;45.53;21.00;;;;;;;0.15;99.58;99635.16;5111240;28;20094;-79
2021/12/08 06:09:23;;;;;;;50.95;22.30;;;;;;;0.03;99.68;99634.34;5110936;28;20039;-81
2021/12/08 06:11:49;;;;;;;55.65;22.92;;;;;;;-0.23;100.00;99615.44;5111951;28;20023;-82
2021/12/08 06:14:16;;;;;;;65.47;25.52;;;;;;;-0.36;100.00;99630.47;5111617;28;20082;-79
2021/12/08 06:16:45;;;;;;;61.13;25.27;;;;;;;-0.48;100.00;99646.19;5093887;28;20534;-79
2021/12/08 06:19:12;;;;;;;62.17;27.08;;;;;;;-0.52;100.00;99657.84;5111396;28;20443;-78
2021/12/08 06:21:38;;;;;;;65.78;25.70;;;;;;;-0.61;100.00;99648.09;5110671;28;20433;-77
2021/12/08 06:24:08;;;;;;;68.50;25.15;;;;;;;-0.63;100.00;99673.59;5111285;28;20035;-77
2021/12/08 06:26:34;;;;;;;73.60;27.80;;;;;;;-0.68;100.00;99676.56;5093324;28;20036;-78
2021/12/08 06:29:02;;;;;;;66.93;25.90;;;;;;;-0.65;100.00;99691.22;5111417;28;20031;-78
2021/12/08 06:31:29;;;;;;;60.70;26.42;;;;;;;-0.70;100.00;99704.69;5093368;28;20032;-77
2021/12/08 06:33:55;;;;;;;73.63;26.88;;;;;;;-0.70;100.00;99694.22;5109379;28;20130;-77
2021/12/08 06:36:31;;;;;;;77.13;27.88;;;;;;;-0.75;100.00;99711.22;5109989;28;20031;-76
2021/12/08 06:38:57;;;;;;;71.57;27.15;;;;;;;-0.73;100.00;99725.03;5111066;28;20036;-76
2021/12/08 06:41:37;;;;;;;71.22;27.67;;;;;;;-0.80;100.00;99726.44;5110199;28;20031;-74
2021/12/08 06:44:09;;;;;;;77.25;30.85;;;;;;;-0.79;100.00;99741.25;5110387;28;20451;-74
2021/12/08 06:46:36;;;;;;;74.80;27.73;;;;;;;-0.76;100.00;99747.06;5109785;28;20369;-74
2021/12/08 06:49:05;;;;;;;73.43;28.45;;;;;;;-0.83;100.00;99750.28;5109003;28;20036;-74
2021/12/08 06:51:41;;;;;;;71.30;28.33;;;;;;;-0.80;100.00;99771.00;5108192;28;20039;-74
2021/12/08 06:54:15;;;;;;;73.78;29.65;;;;;;;-0.82;100.00;99770.28;5108918;28;20482;-74
2021/12/08 06:56:46;;;;;;;72.75;29.05;;;;;;;-0.79;100.00;99775.31;5110921;28;20031;-74
2021/12/08 06:59:17;;;;;;;72.82;27.60;;;;;;;-0.84;100.00;99786.13;5109748;28;20046;-74
2021/12/08 07:01:56;;;;;;;70.75;27.48;;;;;;;-0.93;100.00;99782.41;5110526;28;20039;-74
2021/12/08 07:04:35;;;;;;;71.75;28.83;;;;;;;-0.86;100.00;99799.34;5109442;28;20043;-74
2021/12/08 07:07:12;;;;;;;74.32;30.60;;;;;;;-0.82;100.00;99809.59;5110721;28;20463;-74
2021/12/08 07:09:43;;;;;;;77.05;30.83;;;;;;;-0.83;100.00;99815.78;5092725;28;20372;-74
2021/12/08 07:12:17;;;;;;;68.70;27.90;;;;;;;-0.82;100.00;99817.47;5109524;28;20027;-75
2021/12/08 07:14:48;;;;;;;75.40;27.80;;;;;;;-0.83;100.00;99823.66;5109260;28;20175;-74
2021/12/08 07:17:19;;;;;;;74.53;27.88;;;;;;;-0.80;100.00;99833.91;5109483;28;20103;-74
2021/12/08 07:19:50;;;;;;;61.35;25.17;;;;;;;-0.77;100.00;99833.69;5092453;28;20032;-74
2021/12/08 07:22:21;;;;;;;73.68;26.00;;;;;;;-0.79;100.00;99828.56;5110282;28;20032;-75
2021/12/08 07:24:50;;;;;;;72.93;30.45;;;;;;;-0.77;100.00;99836.28;5109173;28;20038;-75
2021/12/08 07:27:24;;;;;;;73.72;28.75;;;;;;;-0.72;100.00;99839.44;5108774;28;20074;-75
2021/12/08 07:29:51;;;;;;;63.85;28.10;;;;;;;-0.78;100.00;99829.41;5109026;28;20364;-76
2021/12/08 07:32:21;;;;;;;65.35;28.15;;;;;;;-0.81;100.00;99830.47;5109010;28;20350;-76
2021/12/08 07:34:51;;;;;;;70.68;28.38;;;;;;;-0.77;100.00;99825.81;5108930;28;20574;-77
2021/12/08 07:37:30;;;;;;;67.30;27.98;;;;;;;-0.80;100.00;99824.25;5109029;28;20036;-76
2021/12/08 07:40:02;;;;;;;69.60;27.63;;;;;;;-0.81;100.00;99827.84;5109135;28;20059;-77
2021/12/08 07:42:34;;;;;;;62.83;26.75;;;;;;;-0.81;100.00;99827.84;5110165;28;20039;-76
2021/12/08 07:45:04;;;;;;;65.80;26.23;;;;;;;-0.76;100.00;99833.56;5108090;28;20031;-76
2021/12/08 07:47:31;;;;;;;73.05;27.73;;;;;;;-0.77;100.00;99810.09;5108483;28;20475;-77
2021/12/08 07:50:03;;;;;;;69.55;28.90;;;;;;;-0.78;100.00;99822.34;5109743;28;20468;-76
2021/12/08 07:52:33;;;;;;;61.88;28.17;;;;;;;-0.80;100.00;99824.25;5109065;28;20035;-76
2021/12/08 07:55:00;;;;;;;71.22;29.20;;;;;;;-0.73;100.00;99846.44;5108634;28;20041;-77
2021/12/08 07:57:29;;;;;;;62.00;26.65;;;;;;;-0.82;100.00;99833.19;5108391;28;20031;-77
2021/12/08 08:00:00;;;;;;;58.58;27.27;;;;;;;-0.82;100.00;99815.69;5107835;28;20020;-76
2021/12/08 08:02:28;;;;;;;70.25;28.77;;;;;;;-0.78;100.00;99808.44;5108579;28;20028;-77
2021/12/08 08:04:56;;;;;;;61.20;26.48;;;;;;;-0.73;100.00;99845.63;5108583;28;20065;-78
2021/12/08 08:07:22;;;;;;;67.38;25.70;;;;;;;-0.77;100.00;99829.28;5090687;28;20193;-76
2021/12/08 08:09:58;;;;;;;65.43;29.05;;;;;;;-0.80;100.00;99826.88;5108093;28;20043;-75
2021/12/08 08:12:24;;;;;;;69.35;28.92;;;;;;;-0.80;100.00;99833.91;5108910;28;20047;-74
2021/12/08 08:14:53;;;;;;;61.28;27.02;;;;;;;-0.75;100.00;99842.28;5108795;28;20059;-74
2021/12/08 08:17:28;;;;;;;70.85;27.58;;;;;;;-0.72;100.00;99844.69;5108223;28;20028;-75
2021/12/08 08:19:54;;;;;;;66.30;25.75;;;;;;;-0.78;100.00;99813.66;5109074;28;20035;-74
2021/12/08 08:22:26;;;;;;;59.85;26.23;;;;;;;-0.77;100.00;99823.19;5108231;28;20098;-75
2021/12/08 08:24:55;;;;;;;60.13;25.20;;;;;;;-0.67;100.00;99845.19;5108798;28;20051;-75
2021/12/08 08:27:22;;;;;;;62.10;29.00;;;;;;;-0.67;100.00;99838.16;5091214;28;20433;-75
2021/12/08 08:29:48;;;;;;;62.65;26.05;;;;;;;-0.69;100.00;99833.97;5107957;28;20040;-75
2021/12/08 08:32:21;;;;;;;63.58;26.45;;;;;;;-0.68;100.00;99840.88;5090683;28;20038;-75
2021/12/08 08:34:55;;;;;;;60.60;26.80;;;;;;;-0.76;100.00;99827.50;5108583;28;20050;-75
2021/12/08 08:37:21;;;;;;;61.13;26.23;;;;;;;-0.75;100.00;99839.66;5108893;28;20035;-75
2021/12/08 08:39:51;;;;;;;64.05;25.35;;;;;;;-0.68;100.00;99846.09;5107828;28;20038;-75
2021/12/08 08:42:23;;;;;;;63.17;26.73;;;;;;;-0.75;100.00;99842.28;5108700;28;20112;-75
2021/12/08 08:44:55;;;;;;;62.67;26.08;;;;;;;-0.64;100.00;99855.44;5107588;28;20057;-76
2021/12/08 08:47:30;;;;;;;63.47;26.83;;;;;;;-0.70;100.00;99851.47;5108799;28;20043;-76
2021/12/08 08:49:57;;;;;;;66.07;28.02;;;;;;;-0.64;100.00;99876.41;5107664;28;20116;-75
2021/12/08 08:52:28;;;;;;;66.40;27.88;;;;;;;-0.69;100.00;99857.56;5108103;28;20047;-75
2021/12/08 08:54:57;;;;;;;70.78;27.40;;;;;;;-0.72;100.00;99847.31;5108533;28;20088;-75
2021/12/08 08:57:27;;;;;;;64.63;26.95;;;;;;;-0.72;100.00;99869.09;5107942;28;20788;-74
2021/12/08 09:00:06;;;;;;;67.38;26.70;;;;;;;-0.72;100.00;99876.13;5106460;28;20047;-76
2021/12/08 09:02:39;;;;;;;73.90;28.75;;;;;;;-0.66;100.00;99883.53;5106804;28;20035;-76
2021/12/08 09:05:30;;;;;;;65.80;27.75;;;;;;;-0.64;100.00;99892.13;5105673;28;20373;-76
2021/12/08 09:07:58;;;;;;;78.55;30.42;;;;;;;-0.59;100.00;99900.50;5106087;28;20414;-77
2021/12/08 09:10:32;;;;;;;70.50;28.38;;;;;;;-0.66;100.00;99897.50;5105704;28;20453;-76
2021/12/08 09:13:04;;;;;;;67.93;27.52;;;;;;;-0.64;100.00;99900.00;5107076;28;20043;-77
2021/12/08 09:15:35;;;;;;;70.93;28.17;;;;;;;-0.59;100.00;99905.75;5106603;28;20118;-77
2021/12/08 09:18:23;;;;;;;55.28;25.38;;;;;;;-0.70;100.00;99903.09;5108553;28;20040;-76
2021/12/08 09:21:00;;;;;;;67.22;26.55;;;;;;;-0.67;100.00;99913.34;5107661;28;20108;-77
2021/12/08 09:23:33;;;;;;;67.57;27.00;;;;;;;-0.57;100.00;99924.81;5107698;28;20036;-75
2021/12/08 09:26:07;;;;;;;65.50;26.13;;;;;;;-0.64;100.00;99924.44;5108362;28;20456;-75
2021/12/08 09:28:43;;;;;;;69.88;29.48;;;;;;;-0.70;100.00;99916.19;5107643;28;20150;-75
2021/12/08 09:31:19;;;;;;;70.95;29.85;;;;;;;-0.77;100.00;99923.66;5108545;28;20449;-76
2021/12/08 09:33:54;;;;;;;57.88;20.98;;;;;;;-0.77;100.00;99918.41;5107340;28;20040;-75
2021/12/08 09:36:27;;;;;;;72.25;29.88;;;;;;;-0.78;100.00;99921.97;5108468;28;20367;-75
2021/12/08 09:38:57;;;;;;;69.28;27.30;;;;;;;-0.69;100.00;99936.19;5107661;28;20042;-77
2021/12/08 09:41:36;;;;;;;58.92;26.45;;;;;;;-0.68;100.00;99937.84;5090548;28;20035;-75
2021/12/08 09:44:33;;;;;;;59.13;25.08;;;;;;;-0.68;100.00;99958.84;5107212;28;20032;-76
2021/12/08 09:46:58;;;;;;;65.50;26.70;;;;;;;-0.69;100.00;99958.00;5092896;28;20044;-76
2021/12/08 09:49:26;;;;;;;65.70;26.55;;;;;;;-0.64;100.00;99976.03;5108541;28;20353;-76
2021/12/08 09:51:54;;;;;;;67.80;28.13;;;;;;;-0.73;100.00;99961.78;5107483;28;20586;-75
2021/12/08 09:54:20;;;;;;;66.90;30.15;;;;;;;-0.69;100.00;99973.72;5110689;28;20106;-76
2021/12/08 09:56:48;;;;;;;59.35;26.27;;;;;;;-0.69;100.00;99980.78;5111156;28;20410;-75
2021/12/08 09:59:14;;;;;;;64.57;27.58;;;;;;;-0.66;100.00;99981.41;5111172;28;20468;-75
2021/12/08 10:01:42;;;;;;;73.40;29.40;;;;;;;-0.64;100.00;99966.38;5111923;28;20023;-75
2021/12/08 10:04:10;;;;;;;67.55;27.08;;;;;;;-0.60;100.00;99964.38;5110784;28;20035;-76
2021/12/08 10:06:38;;;;;;;70.70;31.00;;;;;;;-0.62;100.00;99974.13;5110639;28;20298;-76
2021/12/08 10:09:04;;;;;;;69.80;26.85;;;;;;;-0.57;100.00;99989.53;5093925;28;20410;-77
2021/12/08 10:11:32;;;;;;;59.40;26.13;;;;;;;-0.56;100.00;99989.44;5110026;28;20027;-77
2021/12/08 10:13:59;;;;;;;68.95;28.67;;;;;;;-0.57;100.00;99985.13;5110335;28;20043;-76
2021/12/08 10:16:26;;;;;;;69.47;28.58;;;;;;;-0.53;100.00;99993.63;5111733;28;20027;-77
2021/12/08 10:18:55;;;;;;;69.32;28.83;;;;;;;-0.47;100.00;100012.38;5110427;28;20516;-77
2021/12/08 10:21:21;;;;;;;67.60;28.08;;;;;;;-0.45;100.00;100005.22;5109899;28;20039;-77
2021/12/08 10:23:48;;;;;;;66.72;27.92;;;;;;;-0.48;100.00;99991.50;5092414;28;20041;-77
2021/12/08 10:26:25;;;;;;;66.15;28.90;;;;;;;-0.50;100.00;99978.50;5110372;28;20070;-76
2021/12/08 10:28:54;;;;;;;61.67;26.60;;;;;;;-0.41;100.00;99987.50;5093473;28;20039;-77
2021/12/08 10:31:30;;;;;;;62.38;27.73;;;;;;;-0.37;100.00;99990.75;5110354;28;20127;-76
2021/12/08 10:34:14;;;;;;;65.32;26.05;;;;;;;-0.37;100.00;99988.13;5110135;28;20043;-77
2021/12/08 10:36:54;;;;;;;64.30;24.38;;;;;;;-0.36;100.00;99984.53;5110477;28;20051;-76
2021/12/08 10:39:32;;;;;;;62.72;28.77;;;;;;;-0.35;100.00;99975.72;5110092;28;20456;-77
2021/12/08 10:42:22;;;;;;;62.50;25.30;;;;;;;-0.35;100.00;99967.84;5111052;28;20054;-77
2021/12/08 10:47:37;;;;;;;57.72;24.52;;;;;;;-0.28;100.00;99959.44;5110841;28;20034;-76
2021/12/08 10:55:22;;;;;;;57.05;24.63;;;;;;;-0.14;100.00;99957.56;5109767;28;20460;-76
2021/12/08 10:57:53;;;;;;;59.40;26.85;;;;;;;-0.24;100.00;99936.41;5110138;28;20027;-77
2021/12/08 11:00:28;;;;;;;60.65;24.55;;;;;;;-0.23;100.00;99949.44;5110843;28;20381;-77
2021/12/08 11:02:59;;;;;;;59.13;25.23;;;;;;;-0.27;100.00;99940.09;5109892;28;20035;-77
2021/12/08 11:05:24;;;;;;;56.22;23.67;;;;;;;-0.17;100.00;99953.38;5109529;28;20134;-77
2021/12/08 11:08:09;;;;;;;58.55;24.00;;;;;;;-0.16;100.00;99946.38;5110684;28;20102;-76
2021/12/08 11:10:39;;;;;;;59.50;23.15;;;;;;;-0.18;100.00;99940.41;5109714;28;20035;-76
2021/12/08 11:13:07;;;;;;;60.15;24.83;;;;;;;-0.14;100.00;99931.31;5109703;28;20040;-77
2021/12/08 11:15:34;;;;;;;70.97;26.90;;;;;;;-0.14;100.00;99913.81;5109420;28;20392;-77
2021/12/08 11:18:10;;;;;;;66.10;25.67;;;;;;;-0.07;100.00;99927.28;5109366;28;20080;-76
2021/12/08 11:20:44;;;;;;;;;;;;;;;-0.06;100.00;99913.25;5109738;28;20059;-76
2021/12/08 11:23:11;;;;;;;57.22;25.58;;;;;;;-0.05;100.00;99907.03;5109522;28;19911;-77
2021/12/08 11:25:44;;;;;;;60.72;25.27;;;;;;;-0.01;100.00;99895.34;5108946;28;20035;-77
2021/12/08 11:28:22;;;;;;;59.83;25.55;;;;;;;-0.04;100.00;99890.34;5109409;28;20445;-77
2021/12/08 11:30:52;;;;;;;61.40;26.00;;;;;;;-0.02;100.00;99889.28;5109106;28;20470;-77
2021/12/08 11:33:21;;;;;;;57.80;24.75;;;;;;;0.04;100.00;99898.47;5092497;28;20940;-76
2021/12/08 11:35:49;;;;;;;58.72;25.05;;;;;;;0.02;100.00;99884.63;5108942;28;20050;-77
2021/12/08 11:38:24;;;;;;;63.28;26.38;;;;;;;0.05;100.00;99878.28;5109175;28;20466;-77
2021/12/08 11:40:49;;;;;;;59.88;24.10;;;;;;;0.03;100.00;99872.34;5108699;28;20050;-77
2021/12/08 11:43:15;;;;;;;57.78;23.45;;;;;;;0.02;100.00;99865.41;5108969;28;20046;-77
2021/12/08 11:45:42;;;;;;;59.90;25.77;;;;;;;0.05;100.00;99870.41;5108850;28;20077;-77
2021/12/08 11:48:26;;;;;;;49.75;23.60;;;;;;;0.05;100.00;99867.78;5110052;28;20038;-77
2021/12/08 11:51:12;;;;;;;58.78;23.27;;;;;;;0.07;100.00;99874.63;5108481;28;20051;-77
2021/12/08 11:53:39;;;;;;;55.40;24.42;;;;;;;0.08;100.00;99871.03;5108106;28;20039;-76
2021/12/08 11:56:06;;;;;;;59.22;23.88;;;;;;;0.11;100.00;99859.47;5109638;28;20114;-77
2021/12/08 11:58:33;;;;;;;52.65;21.88;;;;;;;0.14;100.00;99872.34;5109630;28;20585;-76
2021/12/08 12:01:02;;;;;;;55.30;24.20;;;;;;;0.15;100.00;99855.66;5109485;28;20040;-76
2021/12/08 12:03:30;;;;;;;60.58;25.48;;;;;;;0.15;100.00;99858.28;5108468;28;20392;-76
2021/12/08 12:05:56;;;;;;;53.83;23.33;;;;;;;0.12;100.00;99845.41;5109103;28;20032;-77
2021/12/08 12:08:22;;;;;;;61.85;25.23;;;;;;;0.12;100.00;99842.78;5091450;28;20717;-76
2021/12/08 12:10:53;;;;;;;;;;;;;;;0.18;100.00;99855.41;5108942;28;20031;-76
2021/12/08 12:13:19;;;;;;;56.60;23.15;;;;;;;0.23;100.00;99869.03;5108375;28;19922;-76
2021/12/08 12:15:47;;;;;;;52.83;24.73;;;;;;;0.18;100.00;99866.75;5107520;28;20123;-76
2021/12/08 12:18:16;;;;;;;59.40;26.73;;;;;;;0.17;100.00;99856.38;5108165;28;20039;-76
2021/12/08 12:20:44;;;;;;;59.72;24.73;;;;;;;0.21;100.00;99863.03;5108258;28;20043;-75
2021/12/08 12:23:46;;;;;;;52.95;23.30;;;;;;;0.14;100.00;99861.84;5091229;28;20065;-76
2021/12/08 12:26:15;;;;;;;57.00;24.70;;;;;;;0.22;100.00;99880.50;5109140;28;20035;-76
2021/12/08 12:29:02;;;;;;;54.60;23.67;;;;;;;0.22;100.00;99869.97;5108017;28;20036;-76
2021/12/08 12:31:52;;;;;;;61.90;23.17;;;;;;;0.28;100.00;99869.53;5108293;28;20063;-76